Manitou Beach, MI (49253)

7:33 PM EST on February 08, 2016 (GMT -0500)
Irish Hills Onsted | | Change Station
CLOSE
Current Station
Personal Weather Station
Location: Brooklyn, MI
Elevation: 1044 ft
Nearby Weather Stations

Elev 1044 ft 42.06 °N, 84.22 °W | Updated 12 seconds ago

Partly Cloudy
Partly Cloudy
33.9 °F
Feels Like 27 °F
N
8.0
Wind Variable Wind from WNW
Gusts 12.0 mph

Today
High -- | Low -- °F
--% Chance of Precip.
Yesterday
High -- | Low -- °F
Precip. -- in
Pressure 29.65 in
Visibility 10.0 miles
Clouds Clear
Windchill 27 °F
Dew Point 28 °F
Humidity 80%
Rainfall 0.00 in
Snow Depth Not available.
7:42 AM 6:00 PM
New Moon, 0% visible
METAR KADG 082353Z AUTO 29005KT 10SM CLR 01/M04 A2962 RMK AO2 SLP038 T00111044 10056 20011 51012
Pressure 29.65 in
Visibility 10.0 miles
Clouds Clear
Windchill 27 °F
Dew Point 28 °F
Humidity 80%
Rainfall 0.00 in
Snow Depth Not available.
7:42 AM 6:00 PM
New Moon, 0% visible
METAR KADG 082353Z AUTO 29005KT 10SM CLR 01/M04 A2962 RMK AO2 SLP038 T00111044 10056 20011 51012

10-Day Weather Forecast

Almanac

Astronomy

Feb. 08, 2016 Rise Set
Actual Time
Civil Twilight
Nautical Twilight
Astronomical Twilight
Moon
Length of Visible Light
Length of Day
Tomorrow will be .
, % of the Moon is Illuminated

Today's Extremes

State Highs State Lows

Community

WunderPhotos

Upload Photos

1,891,527 photos uploaded!

WunderBlog® & News

Nearby

Air Quality

  Air Quality AQ Index Pollutant
Not available.

Snow Depth

Station Depth Elevation

Earthquake Activity

City Distance Mag. Time & Date
Minimum magnitude displayed is 2.5.

Coastal Water Temperatures

Place Temperature

Stations

Nearby Weather Stations

Station Location Temp. Windchill Dew Point Humidity Wind Precip. Elev Updated Type
                   

Watches & Warnings

There are currently no watches in effect.